National Weather Service Raw Text Product

Displaying AFOS PIL: TAFOTM Received: 2017-10-13 13:18 UTC


300 
FTUS43 KDMX 131318 AAA
TAFOTM
TAF AMD
KOTM 131318Z 1313/1412 04004KT 4SM BR BKN050
      TEMPO 1313/1315 2SM BR
     FM131500 06005KT P6SM BKN050
     FM132200 04007KT P6SM VCTS OVC020CB
     FM140600 05007KT P6SM OVC007
     FM141000 06006KT 6SM SHRA VCTS BKN005CB=